N317CX KBLI-KACV
Flight info
| Callsign | N317CX |
|---|---|
| Flight time | N/A |
| Altitude | 47000 |
| Route | KLSHN2 KLSHN CVV V165 OLM CETUV T317 AST V27 TRIAL |
| Aircraft | C750/M-SBDE3FGHRWXY/S |
Departure
| Time | 2026-05-06 03:11 |
|---|---|
| Airport | Bellingham International Airport (KBLI) |
Arrival
| Time | N/A |
|---|---|
| Airport | California Redwood Coast-Humboldt County Airport (KACV) |
| Time | Latitude | Longitude | Altitude | Speed | Heading |
|---|---|---|---|---|---|
| 2026-05-06 02:51 | 48.79342 | -122.53186 | 154 ft | 0 kts | 319° |
| 2026-05-06 03:06 | 48.79347 | -122.53193 | 154 ft | 7 kts | 319° |
| 2026-05-06 03:06 | 48.79371 | -122.53225 | 154 ft | 4 kts | 319° |
| 2026-05-06 03:06 | 48.79392 | -122.53271 | 154 ft | 7 kts | 272° |
| 2026-05-06 03:07 | 48.79356 | -122.53372 | 154 ft | 13 kts | 237° |
| 2026-05-06 03:07 | 48.79371 | -122.53471 | 154 ft | 14 kts | 320° |
| 2026-05-06 03:07 | 48.79445 | -122.53557 | 154 ft | 12 kts | 322° |
| 2026-05-06 03:07 | 48.79528 | -122.53587 | 154 ft | 13 kts | 1° |
| 2026-05-06 03:08 | 48.79616 | -122.53585 | 155 ft | 13 kts | 1° |
| 2026-05-06 03:08 | 48.79706 | -122.53587 | 155 ft | 13 kts | 358° |
| 2026-05-06 03:08 | 48.79793 | -122.53591 | 157 ft | 12 kts | 358° |
| 2026-05-06 03:08 | 48.79870 | -122.53590 | 159 ft | 10 kts | 1° |
| 2026-05-06 03:09 | 48.79938 | -122.53587 | 160 ft | 9 kts | 0° |
| 2026-05-06 03:09 | 48.80004 | -122.53588 | 160 ft | 10 kts | 360° |
| 2026-05-06 03:09 | 48.80074 | -122.53573 | 160 ft | 11 kts | 7° |
| 2026-05-06 03:09 | 48.80150 | -122.53573 | 160 ft | 11 kts | 348° |
| 2026-05-06 03:10 | 48.80178 | -122.53665 | 160 ft | 11 kts | 269° |
| 2026-05-06 03:10 | 48.80151 | -122.53759 | 158 ft | 9 kts | 198° |
| 2026-05-06 03:10 | 48.80137 | -122.53760 | 158 ft | 0 kts | 177° |
| 2026-05-06 03:11 | 48.80133 | -122.53760 | 158 ft | 12 kts | 177° |
| 2026-05-06 03:11 | 48.79612 | -122.53756 | 157 ft | 129 kts | 179° |
| 2026-05-06 03:11 | 48.78696 | -122.53767 | 837 ft | 127 kts | 181° |
| 2026-05-06 03:12 | 48.77758 | -122.53958 | 1411 ft | 146 kts | 193° |
| 2026-05-06 03:12 | 48.77130 | -122.54200 | 2124 ft | 134 kts | 195° |
| 2026-05-06 03:12 | 48.76198 | -122.54595 | 2732 ft | 150 kts | 195° |
| 2026-05-06 03:12 | 48.75066 | -122.54966 | 3055 ft | 185 kts | 191° |
| 2026-05-06 03:13 | 48.73672 | -122.55375 | 3274 ft | 221 kts | 193° |
| 2026-05-06 03:13 | 48.72153 | -122.55909 | 4250 ft | 214 kts | 195° |
| 2026-05-06 03:13 | 48.70703 | -122.56412 | 5029 ft | 236 kts | 194° |
| 2026-05-06 03:13 | 48.69095 | -122.56950 | 6140 ft | 229 kts | 194° |
| 2026-05-06 03:14 | 48.67535 | -122.57468 | 7199 ft | 234 kts | 194° |
| 2026-05-06 03:14 | 48.65927 | -122.58022 | 8201 ft | 239 kts | 194° |
| 2026-05-06 03:14 | 48.64295 | -122.58595 | 9305 ft | 243 kts | 195° |
| 2026-05-06 03:14 | 48.62630 | -122.59182 | 10244 ft | 249 kts | 194° |
| 2026-05-06 03:15 | 48.60928 | -122.59778 | 11113 ft | 253 kts | 195° |
| 2026-05-06 03:15 | 48.59190 | -122.60385 | 11970 ft | 260 kts | 195° |
| 2026-05-06 03:15 | 48.57353 | -122.61031 | 12429 ft | 284 kts | 195° |
| 2026-05-06 03:15 | 48.55331 | -122.61740 | 12745 ft | 312 kts | 195° |
| 2026-05-06 03:16 | 48.53121 | -122.62511 | 12986 ft | 340 kts | 195° |
| 2026-05-06 03:16 | 48.50728 | -122.63343 | 13117 ft | 367 kts | 194° |
| 2026-05-06 03:16 | 48.48178 | -122.64232 | 13550 ft | 380 kts | 195° |
| 2026-05-06 03:16 | 48.45594 | -122.65129 | 14304 ft | 383 kts | 195° |
| 2026-05-06 03:17 | 48.42984 | -122.66034 | 14955 ft | 387 kts | 195° |
| 2026-05-06 03:17 | 48.40340 | -122.66953 | 15582 ft | 393 kts | 195° |
| 2026-05-06 03:17 | 48.37664 | -122.67884 | 16243 ft | 397 kts | 195° |
| 2026-05-06 03:17 | 48.34962 | -122.68820 | 16970 ft | 399 kts | 195° |
| 2026-05-06 03:18 | 48.32248 | -122.69757 | 17726 ft | 402 kts | 195° |
| 2026-05-06 03:18 | 48.29504 | -122.70706 | 18447 ft | 407 kts | 195° |
| 2026-05-06 03:18 | 48.26729 | -122.71666 | 19099 ft | 411 kts | 195° |
| 2026-05-06 03:18 | 48.23914 | -122.72546 | 19696 ft | 418 kts | 190° |
| 2026-05-06 03:19 | 48.21003 | -122.72959 | 20340 ft | 422 kts | 187° |
| 2026-05-06 03:19 | 48.18065 | -122.73331 | 21008 ft | 426 kts | 187° |
| 2026-05-06 03:19 | 48.15095 | -122.73765 | 21668 ft | 431 kts | 188° |
| 2026-05-06 03:19 | 48.12089 | -122.74223 | 22258 ft | 438 kts | 187° |
| 2026-05-06 03:20 | 48.05958 | -122.75074 | 23545 ft | 447 kts | 187° |
| 2026-05-06 03:20 | 48.02846 | -122.75514 | 24067 ft | 452 kts | 187° |
| 2026-05-06 03:20 | 47.99715 | -122.75967 | 24673 ft | 453 kts | 187° |
| 2026-05-06 03:21 | 47.96562 | -122.76416 | 25211 ft | 457 kts | 187° |
| 2026-05-06 03:21 | 47.93378 | -122.76860 | 25737 ft | 461 kts | 187° |
| 2026-05-06 03:21 | 47.90170 | -122.77310 | 26256 ft | 465 kts | 187° |
| 2026-05-06 03:21 | 47.86928 | -122.77769 | 26740 ft | 470 kts | 187° |
| 2026-05-06 03:22 | 47.83651 | -122.78230 | 27216 ft | 475 kts | 187° |
| 2026-05-06 03:22 | 47.80345 | -122.78693 | 27754 ft | 479 kts | 187° |
| 2026-05-06 03:22 | 47.77013 | -122.79161 | 28290 ft | 483 kts | 187° |
| 2026-05-06 03:22 | 47.73657 | -122.79631 | 28807 ft | 487 kts | 187° |
| 2026-05-06 03:23 | 47.70270 | -122.80104 | 29311 ft | 491 kts | 187° |
| 2026-05-06 03:23 | 47.66851 | -122.80581 | 29813 ft | 495 kts | 187° |
| 2026-05-06 03:23 | 47.63414 | -122.81060 | 30309 ft | 498 kts | 187° |
| 2026-05-06 03:23 | 47.59952 | -122.81543 | 30703 ft | 502 kts | 187° |
| 2026-05-06 03:24 | 47.56465 | -122.82029 | 31183 ft | 503 kts | 187° |
| 2026-05-06 03:24 | 47.52993 | -122.82511 | 31901 ft | 500 kts | 187° |
| 2026-05-06 03:24 | 47.49542 | -122.82989 | 32583 ft | 497 kts | 187° |
| 2026-05-06 03:24 | 47.46103 | -122.83464 | 33250 ft | 495 kts | 187° |
| 2026-05-06 03:25 | 47.42684 | -122.83938 | 33922 ft | 493 kts | 187° |
| 2026-05-06 03:25 | 47.39277 | -122.84410 | 34527 ft | 491 kts | 187° |
| 2026-05-06 03:25 | 47.35886 | -122.84879 | 35108 ft | 489 kts | 187° |
| 2026-05-06 03:25 | 47.32495 | -122.85347 | 35609 ft | 490 kts | 187° |
| 2026-05-06 03:26 | 47.29116 | -122.85812 | 36290 ft | 485 kts | 187° |
| 2026-05-06 03:26 | 47.25774 | -122.86273 | 36941 ft | 481 kts | 187° |
| 2026-05-06 03:26 | 47.22406 | -122.86738 | 37035 ft | 492 kts | 187° |
| 2026-05-06 03:26 | 47.18956 | -122.87214 | 37033 ft | 504 kts | 187° |
| 2026-05-06 03:27 | 47.15429 | -122.87695 | 37038 ft | 515 kts | 187° |
| 2026-05-06 03:27 | 47.11823 | -122.88187 | 37050 ft | 524 kts | 187° |
| 2026-05-06 03:27 | 47.04467 | -122.89194 | 37064 ft | 537 kts | 187° |
| 2026-05-06 03:28 | 46.97180 | -122.91644 | 37048 ft | 538 kts | 203° |
| 2026-05-06 03:28 | 46.90735 | -122.96912 | 37045 ft | 534 kts | 220° |
| 2026-05-06 03:29 | 46.85285 | -123.04211 | 37063 ft | 531 kts | 228° |
| 2026-05-06 03:29 | 46.79943 | -123.11686 | 37072 ft | 534 kts | 223° |
| 2026-05-06 03:30 | 46.74062 | -123.18356 | 37068 ft | 536 kts | 220° |
| 2026-05-06 03:30 | 46.68429 | -123.25432 | 37071 ft | 535 kts | 224° |
| 2026-05-06 03:31 | 46.62664 | -123.32318 | 37075 ft | 536 kts | 221° |
| 2026-05-06 03:31 | 46.56959 | -123.39256 | 37085 ft | 532 kts | 223° |
| 2026-05-06 03:32 | 46.51257 | -123.46144 | 37089 ft | 533 kts | 221° |
| 2026-05-06 03:32 | 46.45536 | -123.52992 | 37091 ft | 533 kts | 223° |
| 2026-05-06 03:33 | 46.39838 | -123.59864 | 37087 ft | 533 kts | 222° |
| 2026-05-06 03:33 | 46.34095 | -123.66707 | 37086 ft | 536 kts | 223° |
| 2026-05-06 03:34 | 46.28343 | -123.73600 | 37092 ft | 537 kts | 222° |
| 2026-05-06 03:34 | 46.22568 | -123.80439 | 37088 ft | 537 kts | 222° |
| 2026-05-06 03:35 | 46.16337 | -123.86317 | 37081 ft | 539 kts | 207° |
| 2026-05-06 03:35 | 46.09148 | -123.89474 | 37081 ft | 545 kts | 191° |
| 2026-05-06 03:36 | 46.01567 | -123.90141 | 37100 ft | 548 kts | 181° |
| 2026-05-06 03:36 | 45.93929 | -123.90374 | 37098 ft | 550 kts | 185° |
| 2026-05-06 03:37 | 45.86375 | -123.91621 | 37093 ft | 545 kts | 188° |
| 2026-05-06 03:37 | 45.78841 | -123.92309 | 37095 ft | 546 kts | 184° |
| 2026-05-06 03:38 | 45.71265 | -123.93270 | 37096 ft | 546 kts | 187° |
| 2026-05-06 03:38 | 45.63683 | -123.94112 | 37100 ft | 547 kts | 185° |
| 2026-05-06 03:39 | 45.56117 | -123.94972 | 37109 ft | 542 kts | 186° |
| 2026-05-06 03:39 | 45.48577 | -123.95858 | 37108 ft | 546 kts | 185° |
| 2026-05-06 03:40 | 45.40998 | -123.96691 | 37105 ft | 547 kts | 186° |
| 2026-05-06 03:40 | 45.33410 | -123.97583 | 37108 ft | 547 kts | 185° |
| 2026-05-06 03:41 | 45.25815 | -123.98416 | 37100 ft | 546 kts | 186° |
| 2026-05-06 03:41 | 45.18244 | -123.99297 | 37099 ft | 547 kts | 185° |
| 2026-05-06 03:42 | 45.10655 | -124.00132 | 37097 ft | 547 kts | 185° |
| 2026-05-06 03:42 | 45.03062 | -124.01000 | 37106 ft | 549 kts | 185° |
| 2026-05-06 03:43 | 44.95438 | -124.01844 | 37107 ft | 549 kts | 185° |
| 2026-05-06 03:43 | 44.87853 | -124.02701 | 37107 ft | 547 kts | 185° |
| 2026-05-06 03:44 | 44.80259 | -124.03538 | 37118 ft | 549 kts | 185° |
| 2026-05-06 03:44 | 44.72636 | -124.04394 | 37122 ft | 550 kts | 185° |
| 2026-05-06 03:45 | 44.65014 | -124.05233 | 37117 ft | 549 kts | 185° |
| 2026-05-06 03:45 | 44.57429 | -124.06076 | 37122 ft | 547 kts | 185° |
| 2026-05-06 03:46 | 44.49819 | -124.06797 | 37124 ft | 549 kts | 184° |
| 2026-05-06 03:46 | 44.42188 | -124.07505 | 37122 ft | 550 kts | 185° |
| 2026-05-06 03:47 | 44.34553 | -124.08244 | 37118 ft | 551 kts | 184° |
| 2026-05-06 03:47 | 44.26924 | -124.08945 | 37118 ft | 549 kts | 184° |
| 2026-05-06 03:48 | 44.19292 | -124.09673 | 37103 ft | 550 kts | 184° |
| 2026-05-06 03:48 | 44.11651 | -124.10377 | 37110 ft | 551 kts | 184° |
| 2026-05-06 03:49 | 44.04036 | -124.11096 | 37115 ft | 553 kts | 184° |
| 2026-05-06 03:49 | 43.96400 | -124.11803 | 37094 ft | 549 kts | 184° |
| 2026-05-06 03:50 | 43.88776 | -124.12514 | 37104 ft | 550 kts | 184° |
| 2026-05-06 03:50 | 43.81118 | -124.13218 | 37105 ft | 552 kts | 184° |
| 2026-05-06 03:51 | 43.73446 | -124.13930 | 37106 ft | 553 kts | 184° |
| 2026-05-06 03:51 | 43.65808 | -124.14635 | 37091 ft | 549 kts | 184° |
| 2026-05-06 03:52 | 43.58158 | -124.15334 | 37111 ft | 552 kts | 184° |
| 2026-05-06 03:52 | 43.50486 | -124.16039 | 37121 ft | 553 kts | 184° |
| 2026-05-06 03:53 | 43.42813 | -124.16739 | 37118 ft | 552 kts | 184° |
| 2026-05-06 03:53 | 43.35130 | -124.17139 | 37116 ft | 552 kts | 181° |
| 2026-05-06 03:54 | 43.27444 | -124.17497 | 37114 ft | 552 kts | 182° |
| 2026-05-06 03:54 | 43.19752 | -124.17838 | 37113 ft | 554 kts | 181° |
| 2026-05-06 03:55 | 43.12040 | -124.18189 | 37096 ft | 555 kts | 182° |
| 2026-05-06 03:55 | 43.04363 | -124.18533 | 37087 ft | 552 kts | 181° |
| 2026-05-06 03:56 | 42.96678 | -124.18874 | 37109 ft | 554 kts | 181° |
| 2026-05-06 03:56 | 42.88975 | -124.19219 | 37095 ft | 554 kts | 181° |
| 2026-05-06 03:57 | 42.81269 | -124.19561 | 37091 ft | 554 kts | 181° |
| 2026-05-06 03:57 | 42.74879 | -124.19849 | 37107 ft | 553 kts | 181° |
| 2026-05-06 03:58 | 42.67180 | -124.20183 | 37101 ft | 554 kts | 181° |
| 2026-05-06 03:58 | 42.59481 | -124.20527 | 37107 ft | 553 kts | 181° |
| 2026-05-06 03:59 | 42.51767 | -124.20864 | 37107 ft | 555 kts | 181° |
| 2026-05-06 03:59 | 42.44072 | -124.21206 | 37111 ft | 552 kts | 181° |
| 2026-05-06 04:00 | 42.36385 | -124.21542 | 37116 ft | 553 kts | 181° |
| 2026-05-06 04:00 | 42.28678 | -124.21881 | 37121 ft | 555 kts | 181° |
| 2026-05-06 04:01 | 42.20957 | -124.22219 | 37112 ft | 555 kts | 181° |
| 2026-05-06 04:01 | 42.13277 | -124.22557 | 37140 ft | 552 kts | 181° |
| 2026-05-06 04:02 | 42.05642 | -124.22884 | 37137 ft | 553 kts | 181° |
| 2026-05-06 04:02 | 41.97943 | -124.23226 | 37135 ft | 554 kts | 181° |
| 2026-05-06 04:03 | 41.90235 | -124.23555 | 37116 ft | 555 kts | 181° |
| 2026-05-06 04:03 | 41.82545 | -124.23892 | 37119 ft | 553 kts | 181° |
| 2026-05-06 04:04 | 41.74853 | -124.24076 | 37119 ft | 553 kts | 179° |
| 2026-05-06 04:04 | 41.67142 | -124.24017 | 37134 ft | 555 kts | 179° |
| 2026-05-06 04:05 | 41.59428 | -124.23988 | 37123 ft | 553 kts | 179° |
| 2026-05-06 04:05 | 41.51766 | -124.24010 | 36974 ft | 537 kts | 182° |
| 2026-05-06 04:06 | 41.48153 | -124.24625 | 36409 ft | 511 kts | 191° |
| 2026-05-06 04:06 | 41.44809 | -124.25889 | 35864 ft | 492 kts | 200° |
| 2026-05-06 04:06 | 41.41728 | -124.27779 | 35340 ft | 486 kts | 210° |
| 2026-05-06 04:06 | 41.38913 | -124.30284 | 34839 ft | 489 kts | 219° |
| 2026-05-06 04:07 | 41.36412 | -124.33358 | 34348 ft | 490 kts | 229° |
| 2026-05-06 04:07 | 41.34469 | -124.37036 | 33752 ft | 485 kts | 246° |
| 2026-05-06 04:07 | 41.33452 | -124.41264 | 33179 ft | 478 kts | 261° |
| 2026-05-06 04:07 | 41.32942 | -124.45629 | 32694 ft | 477 kts | 266° |
| 2026-05-06 04:08 | 41.32626 | -124.49964 | 32226 ft | 477 kts | 268° |
| 2026-05-06 04:08 | 41.32378 | -124.54421 | 31744 ft | 477 kts | 269° |
| 2026-05-06 04:08 | 41.32168 | -124.58775 | 31271 ft | 478 kts | 270° |
| 2026-05-06 04:08 | 41.31971 | -124.63185 | 30795 ft | 479 kts | 270° |
| 2026-05-06 04:09 | 41.31782 | -124.67600 | 30318 ft | 476 kts | 270° |
| 2026-05-06 04:09 | 41.31599 | -124.71974 | 29782 ft | 471 kts | 270° |
| 2026-05-06 04:09 | 41.31422 | -124.76304 | 29232 ft | 467 kts | 270° |
| 2026-05-06 04:09 | 41.31250 | -124.80606 | 28686 ft | 464 kts | 270° |
| 2026-05-06 04:10 | 41.31082 | -124.84875 | 28162 ft | 460 kts | 270° |
| 2026-05-06 04:10 | 41.30920 | -124.89105 | 27642 ft | 456 kts | 270° |
| 2026-05-06 04:10 | 41.30763 | -124.93305 | 27126 ft | 453 kts | 270° |
| 2026-05-06 04:10 | 41.30613 | -124.97471 | 26627 ft | 450 kts | 270° |
| 2026-05-06 04:11 | 41.30467 | -125.01613 | 26136 ft | 447 kts | 270° |
| 2026-05-06 04:11 | 41.30325 | -125.05721 | 25649 ft | 443 kts | 270° |
| 2026-05-06 04:11 | 41.30191 | -125.09803 | 25176 ft | 440 kts | 270° |
| 2026-05-06 04:11 | 41.30065 | -125.13853 | 24711 ft | 437 kts | 270° |
| 2026-05-06 04:12 | 41.29950 | -125.17882 | 24249 ft | 433 kts | 271° |
| 2026-05-06 04:12 | 41.30412 | -125.21785 | 23686 ft | 425 kts | 291° |
| 2026-05-06 04:12 | 41.31910 | -125.25098 | 23051 ft | 415 kts | 313° |